Meath Environmental Platform

Observations for Trim Patrick St

Time AQI Temp °C Hum % Pres Pa CO μg/m³ H₂S μg/m³ NO μg/m³ NO₂ μg/m³ O₃ μg/m³ SO₂ μg/m³ PM1 μg/m³ PM2.5 μg/m³ PM10 μg/m³
Saturday 1 August 2026
01:50 2 13.3 70 38,460 0.29 2.72 3.58 15.7 37.77 0 6.29 11.67 12.84
01:49 2 13.3 70 38,460 0.29 2.07 3.58 15.46 35.83 0 5.43 11.67 12.83
01:48 2 13.3 71 38,460 0.29 2.33 3.64 16.03 39.92 0 6.29 11.54 12.7
01:47 2 13.4 71 38,460 0.29 2.9 3.6 15.95 42.34 0 2.86 6.51 7.16
01:46 2 13.4 70 38,460 0.27 1.86 3.58 16.47 39.8 0 5.43 9.52 10.47
01:45 2 13.4 70 38,460 0.29 1.84 3.59 12.25 32.26 0 5.43 10.94 12.03
01:44 2 13.4 68 38,460 0.31 3.05 3.5 21.51 44.02 0 5.43 11.1 12.21
01:43 2 13.4 69 38,460 0.3 1.86 3.55 12.63 31.63 0 5.43 10.29 11.31
01:42 2 13.4 70 38,460 0.29 1.63 3.59 13.5 38.85 0 5.43 10.95 12.05
01:41 2 13.4 69 38,460 0.3 2.17 3.59 13.84 41.4 0 6.29 11.7 12.87
01:40 2 13.4 69 38,460 0.3 2.85 3.58 16.45 41.63 0 5.43 10.97 12.07
01:39 2 13.4 69 38,460 0.32 2.48 3.56 16.13 31.05 0 5.43 10.98 12.07
01:38 2 13.5 70 38,460 0.31 1.84 3.54 11.45 27.13 0 5.43 11.67 12.84
01:37 2 13.5 69 38,459 0.31 2.87 3.46 19.89 43.22 0 5.43 9.58 10.54
01:36 2 13.5 70 38,459 0.32 1.76 3.58 14.88 31.89 0 6.29 12.35 13.58
01:35 2 13.5 70 38,459 0.29 2.56 3.54 18.58 43.67 0 6.29 10.94 12.03
01:34 2 13.5 70 38,459 0.29 2.43 3.57 16.42 41.65 0 5.43 10.23 11.25
01:33 2 13.5 70 38,459 0.29 2.56 3.58 15.31 34.3 0 5.43 10.94 12.03
01:32 2 13.5 70 38,459 0.29 3.21 3.57 15.51 45.13 0 5.43 10.24 11.26
01:31 2 13.6 71 38,459 0.29 3.16 3.56 17.2 37.75 0 6.29 11.58 12.74